Pollock, SD

9:39 AM CDT on September 04, 2015 (GMT -0500)
Strasburg, ND | | Change Station
CLOSE
Current Station
Personal Weather Station
Location: Strasburg, ND
Elevation: 1818 ft
Nearby Weather Stations

Elev 1818 ft 46.13 °N, 100.16 °W | Updated 4 minutes ago

Partly Cloudy
Partly Cloudy
72.3 °F
Feels Like 72.3 °F
N
0.0
Wind Variable Wind from South
Gusts 0.0 mph

Today
High -- | Low -- °F
--% Chance of Precip.
Yesterday
High -- | Low -- °F
Precip. -- in
7:05 AM 8:14 PM
Waning Gibbous, 59% visible
Pressure 29.68 in
Visibility 10.0 miles
Clouds Few 7000 ft
Few 9500 ft
Scattered Clouds 12000 ft
Dew Point 70 °F
Humidity 93%
Rainfall 0.00 in
Snow Depth Not available.
UV 1 out of 12
Pollen 10.60 out of 12
Air Quality Not available.
Flu Activity Not available.
METAR KMBG 041352Z AUTO 15008KT 10SM FEW070 FEW095 SCT120 22/21 A2971 RMK AO2 RAE42 SLP049 P0002 T02170206
Pressure 29.68 in
Visibility 10.0 miles
Clouds Few 7000 ft
Few 9500 ft
Scattered Clouds 12000 ft
Dew Point 70 °F
Humidity 93%
Rainfall 0.00 in
Snow Depth Not available.
UV 1 out of 12
Pollen 10.60 out of 12
Air Quality Not available.
Flu Activity Not available.
METAR KMBG 041352Z AUTO 15008KT 10SM FEW070 FEW095 SCT120 22/21 A2971 RMK AO2 RAE42 SLP049 P0002 T02170206

10-Day Weather Forecast

×

Almanac

Astronomy

Sep. 04, 2015 Rise Set
Actual Time
Civil Twilight
Nautical Twilight
Astronomical Twilight
Moon
Length of Visible Light
Length of Day
Tomorrow will be .
, % of the Moon is Illuminated

Today's Extremes

State Highs State Lows

Community

WunderPhotos

Upload Photos

1,852,186 photos uploaded!

WunderBlogs® & News

Nearby

Air Quality

  Air Quality AQ Index Pollutant
Not available.

Snow Depth

Station Depth Elevation

Earthquake Activity

City Distance Mag. Time & Date
Minimum magnitude displayed is 2.5.

Coastal Water Temperatures

Place Temperature

Stations

Nearby Weather Stations

Station Location Temp. Windchill Dew Point Humidity Wind Precip. Elev Updated Type